TAF and METAR

Could not understand the following METAR

YTNK 230300Z AUTO 09006KT 020V130 9999 // NCD 37/M03 Q1010

TAF for Tennant Creek Airport

TAF YTNK 230128Z 2302/2314 13010KT CAVOK
Report created 23. feb 02:28

between 23. feb 03:00 - 23. feb 15:00

wind 10 knots from SE (130°) Clear sky
Tennant Creek Airport in Australia at 377m

Latest 5 airports